sensor_id;sensor_type;location;lat;lon;timestamp;P1;durP1;ratioP1;P2;durP2;ratioP2
9264;SDS011;4669;49.594;10.958;2024-03-02T05:30:32;38.92;;;24.25;;
9264;SDS011;4669;49.594;10.958;2024-03-02T05:35:34;29.77;;;21.80;;
9264;SDS011;4669;49.594;10.958;2024-03-02T05:40:37;31.75;;;22.35;;
9264;SDS011;4669;49.594;10.958;2024-03-02T05:45:40;30.58;;;20.75;;
9264;SDS011;4669;49.594;10.958;2024-03-02T05:50:42;29.30;;;20.23;;
9264;SDS011;4669;49.594;10.958;2024-03-02T05:55:44;25.98;;;20.13;;
9264;SDS011;4669;49.594;10.958;2024-03-02T06:00:48;29.38;;;19.17;;
9264;SDS011;4669;49.594;10.958;2024-03-02T06:05:50;32.63;;;20.15;;
9264;SDS011;4669;49.594;10.958;2024-03-02T06:10:52;24.85;;;18.52;;
9264;SDS011;4669;49.594;10.958;2024-03-02T06:15:56;31.77;;;23.65;;
9264;SDS011;4669;49.594;10.958;2024-03-02T06:20:58;36.53;;;28.15;;
9264;SDS011;4669;49.594;10.958;2024-03-02T06:26:01;28.40;;;22.50;;
9264;SDS011;4669;49.594;10.958;2024-03-02T06:31:05;32.90;;;23.15;;
9264;SDS011;4669;49.594;10.958;2024-03-02T06:36:07;31.02;;;23.95;;
9264;SDS011;4669;49.594;10.958;2024-03-02T06:41:09;29.50;;;22.30;;
9264;SDS011;4669;49.594;10.958;2024-03-02T06:46:13;28.75;;;23.50;;
9264;SDS011;4669;49.594;10.958;2024-03-02T06:51:15;30.00;;;21.42;;
9264;SDS011;4669;49.594;10.958;2024-03-02T06:56:17;30.73;;;21.75;;
9264;SDS011;4669;49.594;10.958;2024-03-02T07:01:20;29.98;;;20.88;;
9264;SDS011;4669;49.594;10.958;2024-03-02T07:06:22;33.13;;;21.65;;
9264;SDS011;4669;49.594;10.958;2024-03-02T07:11:25;32.42;;;21.67;;
9264;SDS011;4669;49.594;10.958;2024-03-02T07:16:29;35.38;;;23.02;;
9264;SDS011;4669;49.594;10.958;2024-03-02T07:21:33;35.53;;;23.63;;
9264;SDS011;4669;49.594;10.958;2024-03-02T07:26:35;33.50;;;23.38;;
9264;SDS011;4669;49.594;10.958;2024-03-02T07:31:38;32.53;;;22.25;;
9264;SDS011;4669;49.594;10.958;2024-03-02T07:36:40;28.55;;;20.98;;
9264;SDS011;4669;49.594;10.958;2024-03-02T07:41:42;33.92;;;22.30;;
9264;SDS011;4669;49.594;10.958;2024-03-02T07:46:48;26.10;;;20.70;;
9264;SDS011;4669;49.594;10.958;2024-03-02T07:51:51;27.48;;;20.17;;
9264;SDS011;4669;49.594;10.958;2024-03-02T07:56:53;25.15;;;20.33;;
9264;SDS011;4669;49.594;10.958;2024-03-02T08:01:56;28.15;;;20.90;;
9264;SDS011;4669;49.594;10.958;2024-03-02T08:06:58;27.95;;;21.45;;
9264;SDS011;4669;49.594;10.958;2024-03-02T08:12:00;27.88;;;20.60;;
9264;SDS011;4669;49.594;10.958;2024-03-02T08:17:04;26.27;;;20.83;;
9264;SDS011;4669;49.594;10.958;2024-03-02T08:22:09;27.05;;;21.60;;
9264;SDS011;4669;49.594;10.958;2024-03-02T08:27:12;27.48;;;19.88;;
9264;SDS011;4669;49.594;10.958;2024-03-02T08:32:16;27.83;;;21.58;;
9264;SDS011;4669;49.594;10.958;2024-03-02T08:37:18;24.92;;;19.70;;
9264;SDS011;4669;49.594;10.958;2024-03-02T08:42:20;26.42;;;19.30;;
9264;SDS011;4669;49.594;10.958;2024-03-02T08:47:24;25.98;;;19.00;;
9264;SDS011;4669;49.594;10.958;2024-03-02T08:52:26;23.90;;;17.90;;
9264;SDS011;4669;49.594;10.958;2024-03-02T08:57:29;26.58;;;18.95;;
9264;SDS011;4669;49.594;10.958;2024-03-02T09:02:32;24.60;;;17.60;;
9264;SDS011;4669;49.594;10.958;2024-03-02T09:07:35;21.27;;;17.55;;
9264;SDS011;4669;49.594;10.958;2024-03-02T09:12:38;21.45;;;16.55;;
9264;SDS011;4669;49.594;10.958;2024-03-02T09:17:42;19.65;;;15.82;;
9264;SDS011;4669;49.594;10.958;2024-03-02T09:22:44;19.90;;;14.57;;
9264;SDS011;4669;49.594;10.958;2024-03-02T09:27:47;18.42;;;14.82;;
9264;SDS011;4669;49.594;10.958;2024-03-02T09:32:51;16.60;;;13.38;;
9264;SDS011;4669;49.594;10.958;2024-03-02T09:37:53;16.67;;;13.15;;
9264;SDS011;4669;49.594;10.958;2024-03-02T09:42:55;19.17;;;13.30;;
9264;SDS011;4669;49.594;10.958;2024-03-02T09:47:59;15.98;;;12.57;;
9264;SDS011;4669;49.594;10.958;2024-03-02T09:53:01;17.77;;;12.27;;
9264;SDS011;4669;49.594;10.958;2024-03-02T09:58:03;16.88;;;12.65;;
9264;SDS011;4669;49.594;10.958;2024-03-02T10:03:07;13.25;;;10.88;;
9264;SDS011;4669;49.594;10.958;2024-03-02T10:08:13;11.85;;;10.40;;
9264;SDS011;4669;49.594;10.958;2024-03-02T10:13:15;11.50;;;10.27;;
9264;SDS011;4669;49.594;10.958;2024-03-02T10:18:26;12.18;;;9.60;;
9264;SDS011;4669;49.594;10.958;2024-03-02T10:23:29;11.00;;;9.80;;
9264;SDS011;4669;49.594;10.958;2024-03-02T10:28:31;12.38;;;10.43;;
9264;SDS011;4669;49.594;10.958;2024-03-02T10:33:35;10.90;;;9.77;;
9264;SDS011;4669;49.594;10.958;2024-03-02T10:38:37;12.30;;;10.45;;
9264;SDS011;4669;49.594;10.958;2024-03-02T10:43:42;11.55;;;10.35;;
9264;SDS011;4669;49.594;10.958;2024-03-02T10:48:46;11.60;;;9.80;;
9264;SDS011;4669;49.594;10.958;2024-03-02T10:53:49;10.98;;;9.50;;
9264;SDS011;4669;49.594;10.958;2024-03-02T10:58:52;11.95;;;9.77;;
9264;SDS011;4669;49.594;10.958;2024-03-02T11:04:04;14.23;;;9.65;;
9264;SDS011;4669;49.594;10.958;2024-03-02T11:09:10;12.48;;;10.98;;
9264;SDS011;4669;49.594;10.958;2024-03-02T11:14:16;11.30;;;9.68;;
9264;SDS011;4669;49.594;10.958;2024-03-02T11:19:24;12.90;;;9.27;;
9264;SDS011;4669;49.594;10.958;2024-03-02T11:24:33;10.35;;;8.93;;
9264;SDS011;4669;49.594;10.958;2024-03-02T11:29:45;10.30;;;9.05;;
9264;SDS011;4669;49.594;10.958;2024-03-02T11:34:49;9.45;;;8.35;;
9264;SDS011;4669;49.594;10.958;2024-03-02T11:39:52;8.90;;;8.00;;
9264;SDS011;4669;49.594;10.958;2024-03-02T11:44:55;10.43;;;8.88;;
9264;SDS011;4669;49.594;10.958;2024-03-02T11:49:59;12.65;;;11.18;;
9264;SDS011;4669;49.594;10.958;2024-03-02T11:55:02;14.73;;;13.10;;
9264;SDS011;4669;49.594;10.958;2024-03-02T12:00:16;15.15;;;13.43;;
9264;SDS011;4669;49.594;10.958;2024-03-02T12:05:20;15.32;;;12.90;;
9264;SDS011;4669;49.594;10.958;2024-03-02T12:10:22;14.63;;;13.13;;
9264;SDS011;4669;49.594;10.958;2024-03-02T12:15:25;12.75;;;11.25;;
9264;SDS011;4669;49.594;10.958;2024-03-02T12:20:30;13.48;;;11.00;;
9264;SDS011;4669;49.594;10.958;2024-03-02T12:25:33;14.25;;;12.75;;
9264;SDS011;4669;49.594;10.958;2024-03-02T12:30:36;11.20;;;10.07;;
9264;SDS011;4669;49.594;10.958;2024-03-02T12:35:39;11.07;;;8.82;;
9264;SDS011;4669;49.594;10.958;2024-03-02T12:40:42;10.98;;;9.20;;
9264;SDS011;4669;49.594;10.958;2024-03-02T12:45:45;10.45;;;9.38;;
9264;SDS011;4669;49.594;10.958;2024-03-02T12:50:48;13.70;;;10.32;;
9264;SDS011;4669;49.594;10.958;2024-03-02T12:55:50;13.20;;;11.50;;
9264;SDS011;4669;49.594;10.958;2024-03-02T13:01:05;13.40;;;11.18;;
9264;SDS011;4669;49.594;10.958;2024-03-02T13:06:08;19.30;;;14.15;;
9264;SDS011;4669;49.594;10.958;2024-03-02T13:11:11;16.40;;;12.77;;
9264;SDS011;4669;49.594;10.958;2024-03-02T13:16:14;16.25;;;13.52;;
9264;SDS011;4669;49.594;10.958;2024-03-02T13:21:18;15.73;;;14.02;;
9264;SDS011;4669;49.594;10.958;2024-03-02T13:26:20;15.48;;;12.48;;
9264;SDS011;4669;49.594;10.958;2024-03-02T13:31:22;16.80;;;13.35;;
9264;SDS011;4669;49.594;10.958;2024-03-02T13:36:25;17.08;;;14.55;;
9264;SDS011;4669;49.594;10.958;2024-03-02T13:41:27;20.38;;;15.70;;
9264;SDS011;4669;49.594;10.958;2024-03-02T13:46:29;18.05;;;14.98;;
9264;SDS011;4669;49.594;10.958;2024-03-02T13:51:33;17.75;;;14.70;;
9264;SDS011;4669;49.594;10.958;2024-03-02T13:56:35;17.40;;;13.55;;
9264;SDS011;4669;49.594;10.958;2024-03-02T14:01:39;16.85;;;13.63;;
9264;SDS011;4669;49.594;10.958;2024-03-02T14:06:43;15.15;;;13.10;;
9264;SDS011;4669;49.594;10.958;2024-03-02T14:11:46;15.68;;;11.82;;
9264;SDS011;4669;49.594;10.958;2024-03-02T14:16:50;12.82;;;9.07;;
9264;SDS011;4669;49.594;10.958;2024-03-02T14:21:53;11.73;;;8.93;;
9264;SDS011;4669;49.594;10.958;2024-03-02T14:26:56;6.95;;;6.22;;
9264;SDS011;4669;49.594;10.958;2024-03-02T14:32:02;11.38;;;7.47;;
9264;SDS011;4669;49.594;10.958;2024-03-02T14:37:05;10.93;;;7.53;;
9264;SDS011;4669;49.594;10.958;2024-03-02T14:42:07;9.50;;;5.38;;
9264;SDS011;4669;49.594;10.958;2024-03-02T14:47:09;6.90;;;6.20;;
9264;SDS011;4669;49.594;10.958;2024-03-02T14:52:13;7.35;;;6.55;;
9264;SDS011;4669;49.594;10.958;2024-03-02T14:57:15;9.15;;;6.60;;
9264;SDS011;4669;49.594;10.958;2024-03-02T15:02:17;9.07;;;7.35;;
9264;SDS011;4669;49.594;10.958;2024-03-02T15:07:21;9.70;;;8.68;;
9264;SDS011;4669;49.594;10.958;2024-03-02T15:12:23;13.60;;;10.45;;
9264;SDS011;4669;49.594;10.958;2024-03-02T15:17:25;16.60;;;11.52;;
9264;SDS011;4669;49.594;10.958;2024-03-02T15:22:29;16.45;;;11.50;;
9264;SDS011;4669;49.594;10.958;2024-03-02T15:27:31;16.55;;;11.93;;
9264;SDS011;4669;49.594;10.958;2024-03-02T15:32:33;14.88;;;11.60;;
9264;SDS011;4669;49.594;10.958;2024-03-02T15:37:38;12.85;;;10.63;;
9264;SDS011;4669;49.594;10.958;2024-03-02T15:42:40;15.15;;;12.65;;
9264;SDS011;4669;49.594;10.958;2024-03-02T15:47:42;19.40;;;13.75;;
9264;SDS011;4669;49.594;10.958;2024-03-02T15:52:45;16.70;;;12.68;;
9264;SDS011;4669;49.594;10.958;2024-03-02T15:57:48;15.85;;;11.57;;
9264;SDS011;4669;49.594;10.958;2024-03-02T16:02:50;16.77;;;12.88;;
9264;SDS011;4669;49.594;10.958;2024-03-02T16:07:53;20.95;;;13.68;;
9264;SDS011;4669;49.594;10.958;2024-03-02T16:12:55;22.42;;;15.00;;
9264;SDS011;4669;49.594;10.958;2024-03-02T16:18:00;20.83;;;14.93;;
9264;SDS011;4669;49.594;10.958;2024-03-02T16:23:03;20.73;;;14.18;;
9264;SDS011;4669;49.594;10.958;2024-03-02T16:28:06;21.08;;;14.43;;
9264;SDS011;4669;49.594;10.958;2024-03-02T16:33:08;21.58;;;14.13;;
9264;SDS011;4669;49.594;10.958;2024-03-02T16:38:12;22.73;;;15.68;;
9264;SDS011;4669;49.594;10.958;2024-03-02T16:43:14;20.60;;;15.00;;
9264;SDS011;4669;49.594;10.958;2024-03-02T16:48:17;21.98;;;15.48;;
9264;SDS011;4669;49.594;10.958;2024-03-02T16:53:20;22.55;;;15.50;;
9264;SDS011;4669;49.594;10.958;2024-03-02T16:58:23;22.77;;;14.95;;
9264;SDS011;4669;49.594;10.958;2024-03-02T17:03:25;25.20;;;16.55;;
9264;SDS011;4669;49.594;10.958;2024-03-02T17:08:28;25.25;;;18.33;;
9264;SDS011;4669;49.594;10.958;2024-03-02T17:13:33;22.98;;;15.68;;
9264;SDS011;4669;49.594;10.958;2024-03-02T17:18:35;24.60;;;15.40;;
9264;SDS011;4669;49.594;10.958;2024-03-02T17:23:38;24.10;;;15.95;;
9264;SDS011;4669;49.594;10.958;2024-03-02T17:28:40;22.80;;;15.68;;
9264;SDS011;4669;49.594;10.958;2024-03-02T17:33:42;24.02;;;16.02;;
9264;SDS011;4669;49.594;10.958;2024-03-02T17:38:46;21.73;;;15.73;;
9264;SDS011;4669;49.594;10.958;2024-03-02T17:43:48;23.20;;;16.65;;
9264;SDS011;4669;49.594;10.958;2024-03-02T17:48:50;20.42;;;15.82;;
9264;SDS011;4669;49.594;10.958;2024-03-02T17:53:53;20.88;;;14.60;;
9264;SDS011;4669;49.594;10.958;2024-03-02T17:58:55;19.55;;;14.25;;
9264;SDS011;4669;49.594;10.958;2024-03-02T18:03:57;23.25;;;14.95;;
9264;SDS011;4669;49.594;10.958;2024-03-02T18:09:01;22.30;;;15.57;;
9264;SDS011;4669;49.594;10.958;2024-03-02T18:14:03;20.30;;;15.10;;
9264;SDS011;4669;49.594;10.958;2024-03-02T18:19:05;19.73;;;14.23;;
9264;SDS011;4669;49.594;10.958;2024-03-02T18:24:09;23.13;;;15.55;;
9264;SDS011;4669;49.594;10.958;2024-03-02T18:29:11;21.15;;;16.05;;
9264;SDS011;4669;49.594;10.958;2024-03-02T18:34:14;23.83;;;15.88;;
9264;SDS011;4669;49.594;10.958;2024-03-02T18:39:18;23.02;;;16.08;;
9264;SDS011;4669;49.594;10.958;2024-03-02T18:44:20;22.10;;;15.90;;
9264;SDS011;4669;49.594;10.958;2024-03-02T18:49:22;21.48;;;16.88;;
9264;SDS011;4669;49.594;10.958;2024-03-02T18:54:25;24.23;;;16.85;;
9264;SDS011;4669;49.594;10.958;2024-03-02T18:59:28;24.23;;;16.52;;
9264;SDS011;4669;49.594;10.958;2024-03-02T19:04:30;23.63;;;17.10;;
9264;SDS011;4669;49.594;10.958;2024-03-02T19:09:34;24.00;;;17.63;;
9264;SDS011;4669;49.594;10.958;2024-03-02T19:14:36;22.27;;;16.65;;
9264;SDS011;4669;49.594;10.958;2024-03-02T19:19:38;24.27;;;16.70;;
9264;SDS011;4669;49.594;10.958;2024-03-02T19:24:42;27.17;;;17.95;;
9264;SDS011;4669;49.594;10.958;2024-03-02T19:29:44;25.13;;;17.55;;
9264;SDS011;4669;49.594;10.958;2024-03-02T19:34:46;20.85;;;15.70;;
9264;SDS011;4669;49.594;10.958;2024-03-02T19:39:49;21.60;;;15.00;;
9264;SDS011;4669;49.594;10.958;2024-03-02T19:44:51;21.00;;;14.30;;
9264;SDS011;4669;49.594;10.958;2024-03-02T19:49:53;21.67;;;15.55;;
9264;SDS011;4669;49.594;10.958;2024-03-02T19:54:57;18.88;;;14.13;;
9264;SDS011;4669;49.594;10.958;2024-03-02T19:59:59;21.00;;;14.68;;
9264;SDS011;4669;49.594;10.958;2024-03-02T20:05:01;20.88;;;15.48;;
9264;SDS011;4669;49.594;10.958;2024-03-02T20:10:06;20.85;;;15.55;;
9264;SDS011;4669;49.594;10.958;2024-03-02T20:15:10;20.98;;;15.35;;
9264;SDS011;4669;49.594;10.958;2024-03-02T20:20:13;20.38;;;15.10;;
9264;SDS011;4669;49.594;10.958;2024-03-02T20:25:17;20.50;;;15.15;;
9264;SDS011;4669;49.594;10.958;2024-03-02T20:30:19;25.00;;;18.17;;
9264;SDS011;4669;49.594;10.958;2024-03-02T20:35:21;21.48;;;15.50;;
9264;SDS011;4669;49.594;10.958;2024-03-02T20:40:25;22.13;;;15.52;;
9264;SDS011;4669;49.594;10.958;2024-03-02T20:45:28;24.30;;;16.45;;
9264;SDS011;4669;49.594;10.958;2024-03-02T20:50:30;22.65;;;15.32;;
9264;SDS011;4669;49.594;10.958;2024-03-02T20:55:34;23.90;;;15.80;;
9264;SDS011;4669;49.594;10.958;2024-03-02T21:00:37;21.25;;;15.52;;
9264;SDS011;4669;49.594;10.958;2024-03-02T21:05:40;22.25;;;15.05;;
9264;SDS011;4669;49.594;10.958;2024-03-02T21:10:43;18.17;;;13.38;;
9264;SDS011;4669;49.594;10.958;2024-03-02T21:15:45;25.23;;;17.63;;
9264;SDS011;4669;49.594;10.958;2024-03-02T21:20:47;18.45;;;13.75;;
9264;SDS011;4669;49.594;10.958;2024-03-02T21:25:50;16.65;;;12.40;;
9264;SDS011;4669;49.594;10.958;2024-03-02T21:30:52;16.90;;;12.15;;
9264;SDS011;4669;49.594;10.958;2024-03-02T21:35:54;14.25;;;12.02;;
9264;SDS011;4669;49.594;10.958;2024-03-02T21:40:58;15.90;;;12.02;;
9264;SDS011;4669;49.594;10.958;2024-03-02T21:46:00;18.65;;;12.07;;
9264;SDS011;4669;49.594;10.958;2024-03-02T21:51:02;14.02;;;11.55;;
9264;SDS011;4669;49.594;10.958;2024-03-02T21:56:06;15.77;;;12.07;;
9264;SDS011;4669;49.594;10.958;2024-03-02T22:01:10;15.10;;;12.48;;
9264;SDS011;4669;49.594;10.958;2024-03-02T22:06:13;14.85;;;12.07;;
9264;SDS011;4669;49.594;10.958;2024-03-02T22:11:16;13.35;;;11.27;;
9264;SDS011;4669;49.594;10.958;2024-03-02T22:16:18;15.10;;;12.32;;
9264;SDS011;4669;49.594;10.958;2024-03-02T22:21:23;14.70;;;12.57;;
9264;SDS011;4669;49.594;10.958;2024-03-02T22:26:27;15.38;;;11.93;;
9264;SDS011;4669;49.594;10.958;2024-03-02T22:31:29;15.93;;;12.48;;
9264;SDS011;4669;49.594;10.958;2024-03-02T22:36:31;15.20;;;11.88;;
9264;SDS011;4669;49.594;10.958;2024-03-02T22:41:34;15.18;;;12.48;;
9264;SDS011;4669;49.594;10.958;2024-03-02T22:46:36;17.10;;;13.60;;
9264;SDS011;4669;49.594;10.958;2024-03-02T22:51:38;17.42;;;13.93;;
9264;SDS011;4669;49.594;10.958;2024-03-02T22:56:42;16.88;;;12.65;;
